KDLF/DLF METAR and TAF weather

Enter ICAO airport designator
Station Type Date Time Source
KDLF METAR 2019/12/07 09:56 UTC NOAA

KDLF 070956Z AUTO 31004KT 10SM CLR 06/01 A3028 RMK AO2 SLP250 T00590012 $


Station Type Date Time Source
KDLF Decoded METAR 2019/12/07 09:56 UTC NOAA

Laughlin, Laughlin Air Force Base Auxiliary Airfield, TX, United States (KDLF) 29-07-00N 100-28-00W 294M
Dec 07, 2019 - 04:56 AM EST / 2019.12.07 0956 UTC
Wind: from the NW (310 degrees) at 5 MPH (4 KT):0
Visibility: 10 mile(s):0
Sky conditions: clear
Temperature: 42.6 F (5.9 C)
Dew Point: 34.2 F (1.2 C)
Relative Humidity: 71%
Pressure (altimeter): 30.28 in. Hg (1025 hPa)
ob: KDLF 070956Z AUTO 31004KT 10SM CLR 06/01 A3028 RMK AO2 SLP250 T00590012
cycle: 10

Station Type Date Time Source
KDLF TAF 2019/12/06 23:55 UTC NOAA

TAF
AMD KDLF 062344Z 0623/0724 34012G18KT 9999 SKC QNH3020INS
BECMG 0623/0624 33012KT 9999 SKC QNH3018IN
BECMG 0715/0716 12006KT 9999 FEW200 QNH3014INS TX20/0623Z TN06/0713Z LAST NO
AMDS AFT 0623 NEXT 0818

Example: see airport list